Time;durP1;ratioP1;P1;durP2;ratioP2;P2;SDS_P1;SDS_P2;PMS_P1;PMS_P2;Temp;Humidity;BMP_temperature;BMP_pressure;BME280_temperature;BME280_humidity;BME280_pressure;Samples;Min_cycle;Max_cycle;Signal;HPM_P1;HPM_P2
2022/03/18 00:00:21;;;;;;;12.85;3.85;;;4.60;99.90;;;;;;5068958;28;20143;-78
2022/03/18 00:02:48;;;;;;;16.00;4.22;;;4.60;99.90;;;;;;5049500;28;20040;-81
2022/03/18 00:05:15;;;;;;;9.70;4.05;;;5.90;99.90;;;;;;5066494;28;20063;-79
2022/03/18 00:07:42;;;;;;;16.38;5.07;;;4.00;99.90;;;;;;5049360;28;20028;-79
2022/03/18 00:10:09;;;;;;;16.38;4.13;;;4.50;99.90;;;;;;5049831;28;20106;-77
2022/03/18 00:12:38;;;;;;;26.02;5.38;;;3.90;99.90;;;;;;5050246;28;20064;-79
2022/03/18 00:15:08;;;;;;;13.85;5.70;;;4.50;99.90;;;;;;5064310;28;20094;-79
2022/03/18 00:17:34;;;;;;;12.90;4.57;;;4.40;99.90;;;;;;5048351;28;20515;-77
2022/03/18 00:20:00;;;;;;;15.80;5.18;;;3.90;99.90;;;;;;5061993;28;20127;-77
2022/03/18 00:22:26;;;;;;;15.57;4.82;;;4.30;99.90;;;;;;5047860;28;20095;-78
2022/03/18 00:24:54;;;;;;;11.68;4.93;;;4.30;99.90;;;;;;5032635;28;20040;-77
2022/03/18 00:27:20;;;;;;;13.57;4.95;;;4.30;99.90;;;;;;5049014;28;20410;-78
2022/03/18 00:29:46;;;;;;;18.15;5.75;;;3.80;99.90;;;;;;5064121;28;20494;-78
2022/03/18 00:32:12;;;;;;;19.80;5.72;;;4.20;99.90;;;;;;5065676;28;20420;-77
2022/03/18 00:34:37;;;;;;;12.85;5.32;;;3.80;99.90;;;;;;5048816;28;20039;-78
2022/03/18 00:37:03;;;;;;;13.43;5.15;;;6.30;99.90;;;;;;5048443;28;20531;-78
2022/03/18 00:39:30;;;;;;;12.68;5.70;;;4.20;99.90;;;;;;5064849;28;20044;-78
2022/03/18 00:41:55;;;;;;;15.75;5.88;;;3.60;99.90;;;;;;5066737;28;20126;-78
2022/03/18 00:44:25;;;;;;;18.13;5.25;;;5.30;99.90;;;;;;5064940;28;20076;-77
2022/03/18 00:46:53;;;;;;;12.93;5.40;;;3.70;99.90;;;;;;5064917;28;20036;-78
2022/03/18 00:52:05;;;;;;;14.60;5.20;;;4.20;99.90;;;;;;5069139;28;20150;-76
2022/03/18 00:54:36;;;;;;;12.55;5.28;;;4.10;99.90;;;;;;5070230;28;20098;-77
2022/03/18 00:57:03;;;;;;;12.98;5.25;;;3.70;99.90;;;;;;5068972;28;20515;-77
2022/03/18 00:59:29;;;;;;;13.40;4.60;;;4.30;99.90;;;;;;5036423;28;20068;-79
2022/03/18 01:01:56;;;;;;;18.08;5.22;;;3.70;99.90;;;;;;5069332;28;20125;-78
2022/03/18 01:04:22;;;;;;;18.42;4.95;;;6.30;99.90;;;;;;5070400;28;20105;-77
2022/03/18 01:06:55;;;;;;;15.70;5.57;;;4.20;99.90;;;;;;5052569;28;20040;-78
2022/03/18 01:09:22;;;;;;;16.40;5.65;;;4.20;99.90;;;;;;5069491;28;20045;-77
2022/03/18 01:11:50;;;;;;;13.90;5.78;;;5.50;99.90;;;;;;5060993;28;20070;-77
2022/03/18 01:14:16;;;;;;;16.75;5.43;;;6.20;99.90;;;;;;5069337;28;20052;-78
2022/03/18 01:16:42;;;;;;;14.70;5.32;;;3.80;99.90;;;;;;5070833;28;20036;-77
2022/03/18 01:19:08;;;;;;;15.93;5.70;;;6.20;99.90;;;;;;5034866;28;20039;-80
2022/03/18 01:21:35;;;;;;;12.45;4.82;;;6.20;99.90;;;;;;5069662;28;20041;-78
2022/03/18 01:24:01;;;;;;;17.67;5.85;;;3.60;99.90;;;;;;5052487;28;20044;-79
2022/03/18 01:26:28;;;;;;;17.05;6.05;;;4.10;99.90;;;;;;5052467;28;20089;-80
2022/03/18 01:28:54;;;;;;;15.88;6.35;;;5.20;99.90;;;;;;5071350;28;20044;-79
2022/03/18 01:31:19;;;;;;;19.67;5.30;;;4.10;99.90;;;;;;5069067;28;20315;-79
2022/03/18 01:33:45;;;;;;;18.85;7.10;;;3.90;99.90;;;;;;5051803;28;20052;-79
2022/03/18 01:36:11;;;;;;;15.10;6.78;;;3.40;99.90;;;;;;5052414;28;20072;-78
2022/03/18 01:38:37;;;;;;;16.80;6.55;;;3.70;99.90;;;;;;5070194;28;20037;-79
2022/03/18 01:41:02;;;;;;;15.48;6.47;;;3.20;99.90;;;;;;5051177;28;20041;-77
2022/03/18 01:43:28;;;;;;;17.00;6.60;;;3.70;99.90;;;;;;5069070;28;20113;-77
2022/03/18 01:45:54;;;;;;;20.42;7.38;;;4.00;99.90;;;;;;5052581;28;20036;-78
2022/03/18 01:48:20;;;;;;;22.45;7.85;;;6.00;99.90;;;;;;5067801;28;20430;-78
2022/03/18 01:50:45;;;;;;;19.63;7.38;;;4.00;99.90;;;;;;5068708;28;20037;-78
2022/03/18 01:53:11;;;;;;;15.48;6.22;;;3.90;99.90;;;;;;5068101;28;20045;-78
2022/03/18 01:55:38;;;;;;;13.10;6.43;;;6.10;99.90;;;;;;5068534;28;20124;-80
2022/03/18 01:58:04;;;;;;;15.02;5.57;;;3.80;99.90;;;;;;5068130;28;20111;-79
2022/03/18 02:00:33;;;;;;;17.30;6.70;;;4.00;99.90;;;;;;5067298;28;20043;-78
2022/03/18 02:02:59;;;;;;;11.82;5.53;;;4.10;99.90;;;;;;5051575;28;20040;-77
2022/03/18 02:05:25;;;;;;;20.00;5.90;;;5.60;99.90;;;;;;5032135;28;20090;-79
2022/03/18 02:07:50;;;;;;;13.57;5.43;;;4.20;99.90;;;;;;5083868;28;20125;-78
2022/03/18 02:10:16;;;;;;;14.02;6.53;;;4.80;99.90;;;;;;5050809;28;20390;-78
2022/03/18 02:12:42;;;;;;;16.13;5.35;;;;;;;;;;5069473;28;20109;-78
2022/03/18 02:15:09;;;;;;;13.75;6.70;;;4.10;99.90;;;;;;5050129;28;20040;-79
2022/03/18 02:17:37;;;;;;;20.33;6.82;;;4.00;99.90;;;;;;5068277;28;20044;-78
2022/03/18 02:20:03;;;;;;;29.08;5.97;;;6.00;99.90;;;;;;5067366;28;20607;-77
2022/03/18 02:22:40;;;;;;;13.43;5.95;;;4.10;99.90;;;;;;5067886;28;20033;-79
2022/03/18 02:25:12;;;;;;;15.80;5.72;;;4.00;99.90;;;;;;5061940;28;20068;-78
2022/03/18 02:27:39;;;;;;;17.42;5.95;;;4.00;99.90;;;;;;5067934;28;20037;-78
2022/03/18 02:30:07;;;;;;;16.05;6.25;;;2.50;99.90;;;;;;5065803;28;20056;-78
2022/03/18 02:32:34;;;;;;;19.55;6.63;;;4.00;99.90;;;;;;5067862;28;20431;-78
2022/03/18 02:35:01;;;;;;;23.20;7.28;;;3.90;99.90;;;;;;5067315;28;20393;-78
2022/03/18 02:37:27;;;;;;;14.98;5.80;;;5.90;99.90;;;;;;5068533;28;20048;-78
2022/03/18 02:39:54;;;;;;;17.95;6.22;;;6.10;99.90;;;;;;5068875;28;20056;-78
2022/03/18 02:42:19;;;;;;;13.38;6.03;;;3.70;99.90;;;;;;5050860;28;20113;-78
2022/03/18 02:44:45;;;;;;;13.88;5.93;;;3.30;99.90;;;;;;5050214;28;20044;-78
2022/03/18 02:47:11;;;;;;;18.58;6.38;;;3.80;99.90;;;;;;5048668;28;20065;-78
2022/03/18 02:49:36;;;;;;;17.02;6.20;;;3.40;99.90;;;;;;5049805;28;20044;-77
2022/03/18 02:52:02;;;;;;;19.48;5.82;;;3.80;99.90;;;;;;5050011;28;20118;-78
2022/03/18 02:54:28;;;;;;;13.90;5.63;;;3.90;99.90;;;;;;5067911;28;20121;-78
2022/03/18 02:56:53;;;;;;;14.50;5.63;;;3.90;99.90;;;;;;5066681;28;20499;-77
2022/03/18 02:59:20;;;;;;;24.25;6.25;;;4.40;99.90;;;;;;5067316;28;20077;-79
2022/03/18 03:01:46;;;;;;;18.02;5.95;;;5.80;99.90;;;;;;5067213;28;20041;-78
2022/03/18 03:04:13;;;;;;;13.95;5.53;;;4.00;99.90;;;;;;5066435;28;20795;-79
2022/03/18 03:09:23;;;;;;;15.73;6.33;;;3.50;99.90;;;;;;5094579;28;20082;-77
2022/03/18 03:11:48;;;;;;;16.35;6.15;;;3.70;99.90;;;;;;5065901;28;20331;-78
2022/03/18 03:14:14;;;;;;;10.98;4.63;;;3.80;99.90;;;;;;5066116;28;20123;-78
2022/03/18 03:16:40;;;;;;;12.93;5.15;;;3.50;99.90;;;;;;5067418;28;20044;-78
2022/03/18 03:19:06;;;;;;;12.93;5.63;;;3.90;99.90;;;;;;5048700;28;20048;-78
2022/03/18 03:21:32;;;;;;;11.68;5.80;;;6.00;99.90;;;;;;5050743;28;20079;-78
2022/03/18 03:23:57;;;;;;;13.50;5.68;;;3.90;99.90;;;;;;5049866;28;20396;-78
2022/03/18 03:26:23;;;;;;;10.63;5.43;;;3.40;99.90;;;;;;5049789;28;20042;-78
2022/03/18 03:28:49;;;;;;;11.90;5.60;;;3.30;99.90;;;;;;5066977;28;20060;-78
2022/03/18 03:31:14;;;;;;;12.60;5.40;;;3.50;99.90;;;;;;5066523;28;20048;-79
2022/03/18 03:33:40;;;;;;;15.73;4.97;;;4.00;99.90;;;;;;5067275;28;20111;-78
2022/03/18 03:36:07;;;;;;;8.45;4.88;;;3.70;99.90;;;;;;5066607;28;20104;-78
2022/03/18 03:38:33;;;;;;;9.65;4.97;;;3.10;99.90;;;;;;5050117;28;20047;-76
2022/03/18 03:40:59;;;;;;;16.20;5.97;;;3.80;99.90;;;;;;5065614;28;20045;-77
2022/03/18 03:43:25;;;;;;;15.80;5.38;;;3.60;99.90;;;;;;5066745;28;20052;-77
2022/03/18 03:45:51;;;;;;;18.33;5.85;;;3.90;99.90;;;;;;5065835;28;20044;-76
2022/03/18 03:48:17;;;;;;;15.35;4.68;;;4.80;99.90;;;;;;5066056;28;20040;-77
2022/03/18 03:50:42;;;;;;;13.43;5.57;;;3.30;99.90;;;;;;5067088;28;20412;-77
2022/03/18 03:53:09;;;;;;;10.20;4.88;;;3.70;99.90;;;;;;5048564;28;20052;-78
2022/03/18 03:55:40;;;;;;;19.08;6.03;;;3.70;99.90;;;;;;5050237;28;20040;-81
2022/03/18 03:58:06;;;;;;;13.25;5.50;;;5.70;99.90;;;;;;5049238;28;20403;-78
2022/03/18 04:00:32;;;;;;;16.88;6.32;;;3.10;99.90;;;;;;5048953;28;20059;-76
2022/03/18 04:02:58;;;;;;;14.70;5.55;;;5.50;99.90;;;;;;5065694;28;20480;-77
2022/03/18 04:05:24;;;;;;;11.85;5.70;;;3.20;99.90;;;;;;5067027;28;20044;-78
2022/03/18 04:07:49;;;;;;;18.40;5.63;;;3.50;99.90;;;;;;5065696;28;20507;-78
2022/03/18 04:10:15;;;;;;;14.23;6.78;;;3.40;99.90;;;;;;5049591;28;20037;-78
2022/03/18 04:12:42;;;;;;;17.00;7.50;;;3.30;99.90;;;;;;5066415;28;20078;-80
2022/03/18 04:15:08;;;;;;;14.60;6.07;;;4.10;99.90;;;;;;5065045;28;20496;-78
2022/03/18 04:17:43;;;;;;;17.38;6.00;;;3.60;99.90;;;;;;5049412;28;20037;-78
2022/03/18 04:20:09;;;;;;;;;;;5.50;99.90;;;;;;5067745;28;20393;-77
2022/03/18 04:22:36;;;;;;;14.43;5.55;;;3.70;99.90;;;;;;5065161;28;19920;-78
2022/03/18 04:25:02;;;;;;;14.43;5.32;;;3.60;99.90;;;;;;5051908;28;20124;-78
2022/03/18 04:27:29;;;;;;;11.45;5.57;;;3.70;99.90;;;;;;5071501;28;20086;-78
2022/03/18 04:29:54;;;;;;;9.70;5.15;;;5.00;99.90;;;;;;5052378;28;20080;-77
2022/03/18 04:32:20;;;;;;;15.35;6.40;;;5.50;99.90;;;;;;5053286;28;20068;-79
2022/03/18 04:34:46;;;;;;;15.18;5.47;;;3.70;99.90;;;;;;5053062;28;20044;-77
2022/03/18 04:37:11;;;;;;;14.88;5.93;;;3.70;99.90;;;;;;5052818;28;20063;-78
2022/03/18 04:39:37;;;;;;;17.05;6.00;;;3.80;99.90;;;;;;5069815;28;20040;-77
2022/03/18 04:42:03;;;;;;;16.13;6.13;;;3.60;99.90;;;;;;5068709;28;20351;-77
2022/03/18 04:44:29;;;;;;;17.35;5.65;;;4.40;99.90;;;;;;5069723;28;20052;-78
2022/03/18 04:46:54;;;;;;;15.40;5.70;;;3.80;99.90;;;;;;5053317;28;20438;-77
2022/03/18 04:49:20;;;;;;;15.13;6.60;;;3.80;99.90;;;;;;5069149;28;20087;-78
2022/03/18 04:51:46;;;;;;;12.48;6.25;;;3.80;99.90;;;;;;5069932;28;20527;-77
2022/03/18 04:54:11;;;;;;;11.63;5.75;;;3.40;99.90;;;;;;5069686;28;20040;-78
2022/03/18 04:59:22;;;;;;;13.00;5.43;;;3.60;99.90;;;;;;5069387;28;20049;-77
2022/03/18 05:01:48;;;;;;;10.30;6.00;;;3.90;99.90;;;;;;5069561;28;20037;-77
2022/03/18 05:04:14;;;;;;;10.45;5.28;;;3.60;99.90;;;;;;5069131;28;20075;-78
2022/03/18 05:06:39;;;;;;;14.00;5.53;;;4.10;99.90;;;;;;5069760;28;20044;-76
2022/03/18 05:09:06;;;;;;;12.15;5.38;;;4.50;99.90;;;;;;5069014;28;20263;-78
2022/03/18 05:11:32;;;;;;;11.50;5.57;;;4.00;99.90;;;;;;5060514;28;20137;-77
2022/03/18 05:13:58;;;;;;;8.57;5.55;;;3.90;99.90;;;;;;5051535;28;20502;-77
2022/03/18 05:16:27;;;;;;;15.93;5.72;;;4.20;99.90;;;;;;5052863;28;20048;-78
2022/03/18 05:18:53;;;;;;;12.90;5.68;;;4.10;99.90;;;;;;5051757;28;20389;-78
2022/03/18 05:21:19;;;;;;;16.88;5.88;;;4.00;99.90;;;;;;5052608;28;20048;-78
2022/03/18 05:23:46;;;;;;;12.20;5.13;;;4.20;99.90;;;;;;5068451;28;20106;-77
2022/03/18 05:26:12;;;;;;;15.77;6.60;;;4.10;99.90;;;;;;5051655;28;20502;-80
2022/03/18 05:28:38;;;;;;;13.73;5.97;;;4.10;99.90;;;;;;5051903;28;20106;-77
2022/03/18 05:31:04;;;;;;;11.35;6.22;;;3.30;99.90;;;;;;5068297;28;20080;-77
2022/03/18 05:33:29;;;;;;;10.82;5.80;;;3.90;99.90;;;;;;5068276;28;20544;-77
2022/03/18 05:35:55;;;;;;;10.77;6.45;;;3.90;99.90;;;;;;5051757;28;20040;-76
2022/03/18 05:38:21;;;;;;;15.60;6.35;;;3.50;99.90;;;;;;5068444;28;20054;-78
2022/03/18 05:40:46;;;;;;;12.05;6.43;;;3.60;99.90;;;;;;5068747;28;20076;-78
2022/03/18 05:43:13;;;;;;;10.00;6.22;;;5.50;99.90;;;;;;5067727;28;20044;-78
2022/03/18 05:45:39;;;;;;;12.57;6.15;;;3.50;99.90;;;;;;5068488;28;20036;-78
2022/03/18 05:48:06;;;;;;;14.13;6.20;;;3.60;99.90;;;;;;5068972;28;20083;-77
2022/03/18 05:50:33;;;;;;;10.25;5.88;;;5.30;99.90;;;;;;5068970;28;20132;-78
2022/03/18 05:52:59;;;;;;;11.90;5.57;;;4.70;99.90;;;;;;5050652;28;20044;-78
2022/03/18 05:55:26;;;;;;;19.98;6.93;;;3.70;99.90;;;;;;5068698;28;20035;-79
2022/03/18 05:57:53;;;;;;;12.52;6.63;;;5.20;99.90;;;;;;5068207;28;20403;-78
2022/03/18 06:00:19;;;;;;;11.63;6.32;;;5.80;99.90;;;;;;5066851;28;20044;-77
2022/03/18 06:02:50;;;;;;;14.23;7.18;;;3.50;99.90;;;;;;5067218;28;20496;-77
2022/03/18 06:05:16;;;;;;;13.30;6.65;;;3.60;99.90;;;;;;5052050;28;20409;-78
2022/03/18 06:07:42;;;;;;;14.65;6.78;;;3.60;99.90;;;;;;5051156;28;20544;-77
2022/03/18 06:12:52;;;;;;;16.73;7.50;;;3.50;99.90;;;;;;5061843;28;20044;-77
2022/03/18 06:15:18;;;;;;;11.32;6.60;;;3.50;99.90;;;;;;5051051;28;20537;-77
2022/03/18 06:17:43;;;;;;;22.65;7.65;;;3.60;99.90;;;;;;5038092;28;20051;-77
2022/03/18 06:20:09;;;;;;;11.38;6.95;;;3.50;99.90;;;;;;5068664;28;20112;-77
2022/03/18 06:22:35;;;;;;;14.82;7.47;;;3.60;99.90;;;;;;5051032;28;20048;-76
2022/03/18 06:25:00;;;;;;;14.77;7.85;;;3.50;99.90;;;;;;5069203;28;20052;-76
2022/03/18 06:27:26;;;;;;;16.30;8.05;;;3.40;99.90;;;;;;5067566;28;20064;-78
2022/03/18 06:29:52;;;;;;;18.98;7.88;;;3.40;99.90;;;;;;5067589;28;20059;-78
2022/03/18 06:32:17;;;;;;;16.27;8.77;;;3.40;99.90;;;;;;5051461;28;20094;-77
2022/03/18 06:34:43;;;;;;;14.30;8.95;;;3.30;99.90;;;;;;5051210;28;20063;-78
2022/03/18 06:37:09;;;;;;;13.98;8.38;;;5.70;99.90;;;;;;5051248;28;20135;-78
2022/03/18 06:39:34;;;;;;;14.80;7.90;;;5.70;99.90;;;;;;5068823;28;20088;-78
2022/03/18 06:42:01;;;;;;;18.30;9.00;;;3.50;99.90;;;;;;5067827;28;20082;-78
2022/03/18 06:44:27;;;;;;;16.55;8.57;;;5.00;99.90;;;;;;5069306;28;20060;-78
2022/03/18 06:46:53;;;;;;;16.58;8.93;;;3.20;99.90;;;;;;5067113;28;20463;-77
2022/03/18 06:49:18;;;;;;;18.58;9.27;;;3.80;99.90;;;;;;5049524;28;20090;-78
2022/03/18 06:51:45;;;;;;;16.00;8.85;;;3.60;99.90;;;;;;5068441;28;20041;-77
2022/03/18 06:54:12;;;;;;;14.85;7.60;;;5.20;99.90;;;;;;5067536;28;20045;-77
2022/03/18 06:56:38;;;;;;;17.75;9.40;;;3.70;99.90;;;;;;5066834;28;20076;-82
2022/03/18 06:59:03;;;;;;;16.45;9.00;;;3.30;99.90;;;;;;5060851;28;20511;-82
2022/03/18 07:01:29;;;;;;;14.32;8.95;;;3.10;99.90;;;;;;5067855;28;20043;-81
2022/03/18 07:03:55;;;;;;;15.70;8.95;;;5.40;99.90;;;;;;5066682;28;20461;-80
2022/03/18 07:06:20;;;;;;;18.27;11.45;;;3.30;99.90;;;;;;5067535;28;20085;-81
2022/03/18 07:08:46;;;;;;;33.20;16.70;;;3.80;99.90;;;;;;5066750;28;20074;-80
2022/03/18 07:11:13;;;;;;;16.60;9.75;;;3.90;99.90;;;;;;5050205;28;20068;-82
2022/03/18 07:13:43;;;;;;;16.10;10.35;;;4.00;99.90;;;;;;5068608;28;20040;-79
2022/03/18 07:18:54;;;;;;;18.52;9.88;;;5.30;99.90;;;;;;5067715;28;20139;-80
2022/03/18 07:21:20;;;;;;;17.55;10.80;;;3.80;99.90;;;;;;5050457;28;20060;-81
2022/03/18 07:23:47;;;;;;;20.75;10.77;;;3.40;99.90;;;;;;5066430;28;20053;-79
2022/03/18 07:26:12;;;;;;;18.95;11.73;;;4.00;99.90;;;;;;5067092;28;20044;-79
2022/03/18 07:28:38;;;;;;;22.42;10.35;;;4.30;99.90;;;;;;5050263;28;20070;-79
2022/03/18 07:31:04;;;;;;;18.25;11.30;;;6.10;99.90;;;;;;5032679;28;20493;-78
2022/03/18 07:33:30;;;;;;;16.42;10.85;;;6.40;99.90;;;;;;5067471;28;20063;-79
2022/03/18 07:35:56;;;;;;;18.75;9.80;;;6.30;99.90;;;;;;5066699;28;20047;-78
2022/03/18 07:38:22;;;;;;;21.60;10.63;;;5.50;99.90;;;;;;5049605;28;20088;-79
2022/03/18 07:40:48;;;;;;;19.95;11.30;;;7.40;99.90;;;;;;5068426;28;20044;-78
2022/03/18 07:43:13;;;;;;;22.25;11.13;;;4.20;99.90;;;;;;5061846;28;20040;-79
2022/03/18 07:45:40;;;;;;;21.27;10.77;;;5.50;99.90;;;;;;5098062;28;20044;-77
2022/03/18 07:48:11;;;;;;;18.69;10.27;;;5.00;99.90;;;;;;4555037;28;10002886;-80
2022/03/18 07:50:39;;;;;;;20.23;11.55;;;5.10;99.90;;;;;;5067428;28;20029;-77
2022/03/18 07:53:08;;;;;;;21.15;11.85;;;5.20;99.90;;;;;;5064254;28;20393;-77
2022/03/18 07:55:35;;;;;;;21.88;11.55;;;7.20;99.90;;;;;;5049469;28;20551;-78
2022/03/18 07:58:01;;;;;;;21.27;10.75;;;7.20;99.90;;;;;;5065816;28;20040;-76
2022/03/18 08:00:27;;;;;;;22.50;10.55;;;5.50;99.90;;;;;;5072792;28;20052;-77
2022/03/18 08:02:53;;;;;;;23.42;11.40;;;5.60;99.90;;;;;;5071684;28;20032;-79
2022/03/18 08:05:20;;;;;;;23.38;10.55;;;5.10;99.90;;;;;;5055882;28;20086;-76
2022/03/18 08:07:49;;;;;;;19.30;10.48;;;6.40;99.90;;;;;;5072855;28;20480;-77
2022/03/18 08:10:17;;;;;;;28.50;10.82;;;5.80;99.90;;;;;;5053621;28;20098;-78
2022/03/18 08:12:44;;;;;;;20.45;10.82;;;5.80;99.90;;;;;;5061850;28;20593;-77
2022/03/18 08:15:12;;;;;;;23.23;10.27;;;7.80;99.90;;;;;;5066692;28;20029;-76
2022/03/18 08:17:42;;;;;;;22.48;10.45;;;5.50;99.90;;;;;;5056056;28;20040;-77
2022/03/18 08:20:11;;;;;;;26.73;12.00;;;6.10;99.90;;;;;;5053459;28;20119;-77
2022/03/18 08:22:41;;;;;;;17.35;9.57;;;6.30;99.90;;;;;;5071807;28;20399;-77
2022/03/18 08:25:08;;;;;;;24.35;10.00;;;6.30;99.90;;;;;;5045158;28;20080;-79
2022/03/18 08:27:34;;;;;;;24.33;9.57;;;6.40;99.90;;;;;;5068445;28;20128;-77
2022/03/18 08:30:01;;;;;;;22.17;10.05;;;6.20;99.90;;;;;;5055456;28;20124;-78
2022/03/18 08:32:28;;;;;;;22.50;8.93;;;6.40;99.90;;;;;;5055519;28;20494;-78
2022/03/18 08:34:57;;;;;;;23.70;9.55;;;7.00;99.90;;;;;;5054445;28;20155;-80
2022/03/18 08:40:09;;;;;;;22.30;9.57;;;6.80;99.90;;;;;;5048813;28;20412;-79
2022/03/18 08:42:35;;;;;;;22.92;8.98;;;6.90;99.90;;;;;;5066708;28;20049;-78
2022/03/18 08:45:02;;;;;;;21.83;9.00;;;6.90;99.90;;;;;;5062282;28;20525;-78
2022/03/18 08:47:27;;;;;;;25.42;8.80;;;7.00;99.90;;;;;;5027498;28;20037;-78
2022/03/18 08:49:53;;;;;;;22.08;9.25;;;6.90;99.90;;;;;;5071883;28;20073;-77
2022/03/18 08:52:19;;;;;;;25.98;9.13;;;8.70;99.90;;;;;;5073090;28;20422;-78
2022/03/18 08:54:44;;;;;;;29.90;9.77;;;7.20;99.90;;;;;;5069832;28;20098;-77
2022/03/18 08:57:10;;;;;;;27.75;9.60;;;7.20;99.90;;;;;;5051578;28;20412;-79
2022/03/18 08:59:36;;;;;;;28.45;9.68;;;7.40;99.90;;;;;;5055283;28;20091;-80
2022/03/18 09:02:02;;;;;;;23.75;9.35;;;7.40;99.90;;;;;;5072733;28;20028;-78
2022/03/18 09:04:27;;;;;;;21.40;8.73;;;7.60;99.90;;;;;;5070086;28;20044;-78
2022/03/18 09:06:53;;;;;;;20.08;8.35;;;7.30;99.90;;;;;;5071608;28;20115;-82
2022/03/18 09:09:19;;;;;;;22.42;9.07;;;8.30;99.90;;;;;;5070333;28;20048;-80
2022/03/18 09:11:44;;;;;;;27.30;8.75;;;7.70;99.90;;;;;;5053557;28;20080;-77
2022/03/18 09:14:11;;;;;;;21.98;8.70;;;7.90;99.90;;;;;;5072833;28;20453;-81
2022/03/18 09:16:38;;;;;;;33.22;9.85;;;7.90;99.90;;;;;;5070820;28;20094;-80
2022/03/18 09:19:04;;;;;;;29.00;9.80;;;8.10;99.90;;;;;;5071153;28;20040;-79
2022/03/18 09:21:30;;;;;;;22.13;8.68;;;8.90;99.90;;;;;;5071406;28;20035;-78
2022/03/18 09:23:56;;;;;;;29.77;9.23;;;8.20;99.90;;;;;;5071713;28;20052;-80
2022/03/18 09:26:22;;;;;;;23.02;9.32;;;7.80;99.90;;;;;;5054513;28;20036;-80
2022/03/18 09:28:48;;;;;;;30.88;9.77;;;8.40;99.90;;;;;;5053648;28;20461;-77
2022/03/18 09:31:13;;;;;;;30.83;9.57;;;8.40;99.90;;;;;;5053981;28;20056;-80
2022/03/18 09:33:42;;;;;;;29.63;9.57;;;8.50;99.90;;;;;;5054805;28;20085;-78
2022/03/18 09:36:08;;;;;;;27.23;10.02;;;8.60;99.90;;;;;;5070260;28;20568;-79
2022/03/18 09:38:34;;;;;;;29.80;8.93;;;8.60;99.90;;;;;;5068833;28;20129;-78
2022/03/18 09:40:59;;;;;;;18.35;9.45;;;8.20;99.90;;;;;;5070371;28;20082;-79
2022/03/18 09:43:32;;;;;;;30.88;10.13;;;8.70;99.90;;;;;;5054672;28;20040;-82
2022/03/18 09:45:58;;;;;;;23.63;9.07;;;8.80;99.90;;;;;;4362129;28;10000775;-78
2022/03/18 09:48:25;;;;;;;28.23;9.48;;;8.90;99.90;;;;;;5068825;28;20742;-80
2022/03/18 09:50:52;;;;;;;28.77;9.60;;;8.90;99.90;;;;;;5050657;28;20093;-79
2022/03/18 09:53:17;;;;;;;24.13;10.27;;;9.00;99.90;;;;;;5069024;28;20036;-79
2022/03/18 09:55:43;;;;;;;22.27;9.27;;;9.10;99.90;;;;;;5070415;28;20105;-79
2022/03/18 09:58:09;;;;;;;19.88;9.25;;;9.10;99.90;;;;;;5067890;28;20035;-82
2022/03/18 10:00:34;;;;;;;36.45;12.65;;;9.20;99.90;;;;;;5069390;28;20056;-81
2022/03/18 10:03:16;;;;;;;21.88;8.52;;;9.20;99.90;;;;;;5068046;28;20037;-81
2022/03/18 10:05:59;;;;;;;33.90;11.32;;;9.30;99.90;;;;;;5069068;28;20175;-83
2022/03/18 10:08:25;;;;;;;25.77;9.77;;;9.40;99.90;;;;;;5069985;28;20450;-82
2022/03/18 10:10:51;;;;;;;20.88;11.05;;;9.50;99.90;;;;;;5069335;28;20047;-84
2022/03/18 10:13:18;;;;;;;26.58;8.73;;;9.50;99.90;;;;;;5049972;28;20044;-85
2022/03/18 10:15:44;;;;;;;47.30;24.75;;;10.00;99.90;;;;;;5068560;28;20053;-78
2022/03/18 10:18:12;;;;;;;26.92;9.88;;;9.70;99.90;;;;;;5050472;28;20029;-83
2022/03/18 10:20:48;;;;;;;21.58;8.98;;;9.80;99.90;;;;;;5068910;28;20514;-80
2022/03/18 10:23:19;;;;;;;18.80;9.93;;;9.80;99.90;;;;;;5067577;28;20045;-80
2022/03/18 10:25:56;;;;;;;31.05;10.23;;;9.90;99.90;;;;;;5068121;28;20074;-80
2022/03/18 10:28:37;;;;;;;23.08;9.00;;;10.00;99.90;;;;;;5068989;28;20033;-80
2022/03/18 10:31:20;;;;;;;23.40;8.48;;;10.10;99.90;;;;;;5063402;28;20064;-83
2022/03/18 10:39:26;;;;;;;21.73;8.45;;;10.40;99.90;;;;;;5062352;28;20048;-79
2022/03/18 10:41:52;;;;;;;21.63;8.63;;;10.50;99.90;;;;;;5068050;28;20053;-85
2022/03/18 10:44:19;;;;;;;17.38;7.45;;;10.60;99.90;;;;;;5068140;28;20040;-80
2022/03/18 10:46:45;;;;;;;17.23;7.38;;;10.70;99.90;;;;;;5065673;28;20041;-79
2022/03/18 10:49:10;;;;;;;24.27;8.20;;;10.90;99.90;;;;;;5064189;28;20051;-80
2022/03/18 10:51:37;;;;;;;20.98;7.97;;;10.90;99.90;;;;;;5065458;28;20106;-81
2022/03/18 10:54:04;;;;;;;22.13;8.38;;;11.00;99.90;;;;;;5065278;28;20083;-82
2022/03/18 10:56:58;;;;;;;22.35;7.30;;;11.00;99.90;;;;;;5064897;28;20490;-80
2022/03/18 10:59:27;;;;;;;20.10;8.48;;;11.20;99.90;;;;;;5060551;28;20043;-80
2022/03/18 11:01:54;;;;;;;17.38;7.20;;;11.30;99.90;;;;;;5066120;28;20094;-85
2022/03/18 11:04:22;;;;;;;24.85;7.47;;;11.50;99.90;;;;;;5062312;28;20127;-81
2022/03/18 11:12:24;;;;;;;24.08;7.65;;;11.90;99.90;;;;;;5067795;28;20044;-80
2022/03/18 11:14:58;;;;;;;17.17;7.03;;;12.10;99.90;;;;;;5069347;28;20040;-83
2022/03/18 11:17:25;;;;;;;18.23;6.80;;;12.30;99.90;;;;;;5057162;28;20041;-83
2022/03/18 11:19:54;;;;;;;21.95;7.43;;;12.50;99.90;;;;;;5066530;28;20040;-84
2022/03/18 11:22:23;;;;;;;18.83;7.05;;;12.60;99.90;;;;;;5066944;28;20484;-84
2022/03/18 11:24:51;;;;;;;15.45;6.78;;;12.60;99.90;;;;;;5066917;28;20048;-80
2022/03/18 11:27:17;;;;;;;15.98;5.38;;;12.60;99.90;;;;;;5064081;28;20051;-83
2022/03/18 11:29:44;;;;;;;10.25;4.93;;;12.70;99.90;;;;;;5064781;28;20068;-82
2022/03/18 11:32:09;;;;;;;15.35;5.32;;;12.80;99.90;;;;;;5068368;28;20048;-84
2022/03/18 11:34:50;;;;;;;12.52;4.95;;;13.10;99.90;;;;;;5068525;28;20069;-81
2022/03/18 11:37:18;;;;;;;18.38;6.35;;;13.10;99.90;;;;;;5069053;28;20041;-83
2022/03/18 11:39:43;;;;;;;21.17;5.97;;;13.20;99.90;;;;;;5068841;28;20516;-80
2022/03/18 11:42:09;;;;;;;17.88;5.40;;;13.30;99.90;;;;;;5069063;28;20111;-84
2022/03/18 11:44:41;;;;;;;22.00;6.18;;;13.40;99.90;;;;;;5068035;28;20051;-83
2022/03/18 11:47:18;;;;;;;24.13;6.10;;;13.50;99.90;;;;;;5051342;28;20078;-82
2022/03/18 11:49:44;;;;;;;18.80;5.32;;;13.50;99.90;;;;;;5069080;28;20053;-80
2022/03/18 11:52:10;;;;;;;17.73;5.57;;;13.60;99.90;;;;;;5066060;28;20041;-80
2022/03/18 11:54:50;;;;;;;22.10;5.88;;;14.80;99.90;;;;;;5069457;28;20048;-81
2022/03/18 11:57:26;;;;;;;17.08;5.50;;;13.90;99.90;;;;;;5067615;28;20037;-81
2022/03/18 11:59:53;;;;;;;14.50;5.43;;;13.90;99.90;;;;;;5069472;28;20514;-85
2022/03/18 12:02:19;;;;;;;18.17;5.88;;;14.00;99.90;;;;;;5069813;28;20064;-81
2022/03/18 12:04:52;;;;;;;15.40;5.28;;;14.00;99.90;;;;;;5068371;28;20582;-82
2022/03/18 12:07:24;;;;;;;22.30;5.25;;;14.00;99.90;;;;;;5069085;28;20043;-85
2022/03/18 12:10:03;;;;;;;16.95;5.45;;;14.10;99.90;;;;;;5068513;28;20044;-82
2022/03/18 12:12:30;;;;;;;12.45;4.38;;;14.30;99.90;;;;;;5068125;28;20037;-86
2022/03/18 12:15:00;;;;;;;13.85;4.18;;;14.40;99.90;;;;;;5069929;28;20098;-81
2022/03/18 12:17:26;;;;;;;17.77;5.50;;;15.50;99.90;;;;;;5064130;28;20442;-85
2022/03/18 12:20:02;;;;;;;15.43;4.93;;;14.50;99.90;;;;;;5069223;28;20063;-86
2022/03/18 12:22:30;;;;;;;17.25;5.25;;;14.50;99.90;;;;;;5069649;28;20445;-85
2022/03/18 12:24:57;;;;;;;17.08;4.60;;;14.60;99.90;;;;;;5070155;28;20056;-86
2022/03/18 12:27:31;;;;;;;14.23;4.25;;;14.70;99.90;;;;;;5067910;28;20562;-84
2022/03/18 12:29:58;;;;;;;19.00;5.57;;;14.80;99.90;;;;;;5067907;28;20061;-81
2022/03/18 12:32:24;;;;;;;16.05;4.70;;;14.80;99.90;;;;;;5067307;28;20550;-81
2022/03/18 12:34:52;;;;;;;18.88;4.60;;;14.90;99.90;;;;;;5068543;28;20045;-82
2022/03/18 12:37:23;;;;;;;17.27;3.97;;;15.10;99.90;;;;;;5067929;28;20043;-86
2022/03/18 12:40:04;;;;;;;12.48;3.42;;;15.20;99.90;;;;;;5067057;28;20540;-88
2022/03/18 12:42:30;;;;;;;17.13;4.15;;;15.30;99.90;;;;;;5068405;28;20043;-83
2022/03/18 12:45:02;;;;;;;14.43;4.47;;;15.40;99.90;;;;;;5069658;28;20420;-87
2022/03/18 12:47:32;;;;;;;13.43;3.20;;;15.50;99.90;;;;;;5071567;28;20043;-86
2022/03/18 12:49:58;;;;;;;16.58;4.47;;;15.60;99.90;;;;;;5071650;28;20080;-81
2022/03/18 12:52:24;;;;;;;16.50;4.28;;;15.70;99.90;;;;;;5072458;28;20040;-85
2022/03/18 12:55:23;;;;;;;18.83;3.65;;;15.80;99.90;;;;;;5071567;28;20098;-87
2022/03/18 12:57:50;;;;;;;15.48;4.43;;;15.90;99.90;;;;;;5054003;28;20096;-84
2022/03/18 13:00:17;;;;;;;17.70;4.45;;;16.00;99.90;;;;;;5070545;28;20060;-84
2022/03/18 13:02:44;;;;;;;20.15;4.03;;;16.00;99.90;;;;;;5072911;28;20040;-87
2022/03/18 13:05:13;;;;;;;16.00;4.40;;;16.70;99.90;;;;;;5071878;28;20492;-87
2022/03/18 13:07:39;;;;;;;13.57;3.33;;;16.00;99.90;;;;;;5070528;28;20041;-81
2022/03/18 13:10:05;;;;;;;15.55;3.65;;;16.00;99.90;;;;;;5072689;28;20468;-86